Time;durP1;ratioP1;P1;durP2;ratioP2;P2;SDS_P1;SDS_P2;PMS_P1;PMS_P2;Temp;Humidity;BMP_temperature;BMP_pressure;BME280_temperature;BME280_humidity;BME280_pressure;Samples;Min_cycle;Max_cycle;Signal;HPM_P1;HPM_P2
2021/10/29 00:00:51;;;;;;;0.50;0.50;;;7.70;99.90;;;;;;5093922;28;20444;-84
2021/10/29 00:03:18;;;;;;;0.57;0.57;;;7.70;99.90;;;;;;5093781;28;20511;-84
2021/10/29 00:05:45;;;;;;;0.80;0.80;;;7.70;99.90;;;;;;5093794;28;20451;-84
2021/10/29 00:08:12;;;;;;;2.00;1.03;;;7.70;99.90;;;;;;5093847;28;20830;-84
2021/10/29 00:10:39;;;;;;;0.37;0.33;;;7.60;99.90;;;;;;5093794;28;20436;-84
2021/10/29 00:13:07;;;;;;;0.97;0.70;;;7.60;99.90;;;;;;5093644;28;20468;-84
2021/10/29 00:15:35;;;;;;;1.17;1.07;;;7.60;99.90;;;;;;5093752;28;20447;-84
2021/10/29 00:18:02;;;;;;;1.53;0.57;;;7.60;99.90;;;;;;5093707;28;20491;-83
2021/10/29 00:20:29;;;;;;;0.60;0.60;;;7.60;99.90;;;;;;5093662;28;20432;-84
2021/10/29 00:22:56;;;;;;;0.30;0.30;;;7.60;99.90;;;;;;5093473;28;20484;-84
2021/10/29 00:25:23;;;;;;;4.33;1.13;;;7.60;99.90;;;;;;5093443;28;20814;-84
2021/10/29 00:27:50;;;;;;;1.33;0.70;;;7.60;99.90;;;;;;5093215;28;20942;-84
2021/10/29 00:30:18;;;;;;;1.57;1.33;;;7.60;99.90;;;;;;5093216;28;20831;-84
2021/10/29 00:32:45;;;;;;;0.70;0.70;;;7.60;99.90;;;;;;5093161;28;20982;-84
2021/10/29 00:35:11;;;;;;;0.40;0.40;;;7.60;99.90;;;;;;5093514;28;20455;-84
2021/10/29 00:37:40;;;;;;;0.50;0.30;;;7.50;99.90;;;;;;5093441;28;20467;-84
2021/10/29 00:40:08;;;;;;;0.40;0.30;;;7.50;99.90;;;;;;5093167;28;20442;-84
2021/10/29 00:42:35;;;;;;;0.77;0.50;;;7.50;99.90;;;;;;5093348;28;20483;-84
2021/10/29 00:45:02;;;;;;;0.90;0.90;;;7.50;99.90;;;;;;5093491;28;20456;-84
2021/10/29 00:47:30;;;;;;;0.60;0.40;;;7.50;99.90;;;;;;5093537;28;20439;-83
2021/10/29 00:49:57;;;;;;;2.30;0.67;;;7.50;99.90;;;;;;5093081;28;20962;-83
2021/10/29 00:52:24;;;;;;;0.33;0.33;;;7.50;99.90;;;;;;5093328;28;20804;-83
2021/10/29 00:54:51;;;;;;;2.20;0.90;;;7.40;99.90;;;;;;5093008;28;20451;-84
2021/10/29 00:57:18;;;;;;;0.60;0.50;;;7.40;99.90;;;;;;5093311;28;20443;-84
2021/10/29 00:59:46;;;;;;;0.40;0.40;;;7.30;99.90;;;;;;5093055;28;20432;-84
2021/10/29 01:02:13;;;;;;;0.80;0.73;;;7.30;99.90;;;;;;5093046;28;20471;-83
2021/10/29 01:04:41;;;;;;;0.40;0.30;;;7.30;99.90;;;;;;5093221;28;20459;-84
2021/10/29 01:07:08;;;;;;;3.43;0.40;;;7.30;99.90;;;;;;5093246;28;20816;-84
2021/10/29 01:09:35;;;;;;;0.40;0.37;;;7.30;99.90;;;;;;5093090;28;20436;-83
2021/10/29 01:12:03;;;;;;;0.40;0.40;;;7.30;99.90;;;;;;5092768;28;20463;-83
2021/10/29 01:14:30;;;;;;;1.00;0.80;;;7.30;99.90;;;;;;5092823;28;20939;-84
2021/10/29 01:16:57;;;;;;;0.37;0.37;;;7.30;99.90;;;;;;5093082;28;20444;-83
2021/10/29 01:19:31;;;;;;;0.67;0.67;;;7.30;99.90;;;;;;5092743;28;20436;-83
2021/10/29 01:22:00;;;;;;;0.33;0.33;;;7.30;99.90;;;;;;5093014;28;20464;-83
2021/10/29 01:24:27;;;;;;;0.50;0.50;;;7.30;99.90;;;;;;5092679;28;20463;-83
2021/10/29 01:26:54;;;;;;;3.90;0.70;;;7.30;99.90;;;;;;5092994;28;20448;-84
2021/10/29 01:29:21;;;;;;;0.40;0.40;;;7.30;99.90;;;;;;5092528;28;20479;-84
2021/10/29 01:31:47;;;;;;;0.77;0.40;;;7.20;99.90;;;;;;5092921;28;20408;-83
2021/10/29 01:34:14;;;;;;;0.50;0.50;;;7.20;99.90;;;;;;5092968;28;20915;-82
2021/10/29 01:36:41;;;;;;;0.40;0.30;;;7.20;99.90;;;;;;5093360;28;20451;-83
2021/10/29 01:39:10;;;;;;;0.60;0.60;;;7.20;99.90;;;;;;5098958;28;20448;-83
2021/10/29 01:41:36;;;;;;;0.70;0.70;;;7.20;99.90;;;;;;5097655;28;20439;-83
2021/10/29 01:44:03;;;;;;;0.40;0.40;;;7.20;99.90;;;;;;5095966;28;20998;-84
2021/10/29 01:46:30;;;;;;;0.30;0.30;;;7.20;99.90;;;;;;5096495;28;20452;-83
2021/10/29 01:48:57;;;;;;;0.50;0.50;;;7.20;99.90;;;;;;5096404;28;20440;-84
2021/10/29 01:51:25;;;;;;;0.70;0.40;;;7.20;99.90;;;;;;5096343;28;20448;-84
2021/10/29 01:53:52;;;;;;;0.30;0.30;;;7.20;99.90;;;;;;5095937;28;20476;-84
2021/10/29 01:56:20;;;;;;;0.97;0.97;;;7.30;99.90;;;;;;5096279;28;20811;-84
2021/10/29 01:58:47;;;;;;;1.80;1.60;;;7.20;99.90;;;;;;5096197;28;20795;-90
2021/10/29 02:01:15;;;;;;;1.00;0.60;;;7.20;99.90;;;;;;5097398;28;20535;-91
2021/10/29 02:03:42;;;;;;;0.73;0.73;;;7.10;99.90;;;;;;5097311;28;20488;-90
2021/10/29 02:06:09;;;;;;;1.53;1.53;;;7.10;99.90;;;;;;5097126;28;20448;-90
2021/10/29 02:08:36;;;;;;;0.40;0.30;;;7.00;99.90;;;;;;5097016;28;20444;-90
2021/10/29 02:11:03;;;;;;;0.90;0.30;;;6.90;99.90;;;;;;5097188;28;20895;-90
2021/10/29 02:13:31;;;;;;;1.10;1.10;;;6.90;99.90;;;;;;5096692;28;20988;-90
2021/10/29 02:15:58;;;;;;;0.60;0.60;;;6.80;99.90;;;;;;5096768;28;20440;-90
2021/10/29 02:18:24;;;;;;;0.30;0.30;;;6.70;99.90;;;;;;5096909;28;20448;-89
2021/10/29 02:20:51;;;;;;;1.63;0.70;;;6.70;99.90;;;;;;5097015;28;20451;-89
2021/10/29 02:23:18;;;;;;;1.20;0.47;;;6.60;99.90;;;;;;5096794;28;20558;-89
2021/10/29 02:25:46;;;;;;;0.50;0.50;;;6.60;99.90;;;;;;5097852;28;20444;-90
2021/10/29 02:28:13;;;;;;;1.30;0.53;;;6.60;99.90;;;;;;5096883;28;20815;-89
2021/10/29 02:30:42;;;;;;;0.30;0.30;;;6.60;99.90;;;;;;5096655;28;20475;-90
2021/10/29 02:33:09;;;;;;;0.70;0.40;;;6.50;99.90;;;;;;5096502;28;20460;-90
2021/10/29 02:35:35;;;;;;;1.03;1.03;;;6.60;99.90;;;;;;5096586;28;20455;-89
2021/10/29 02:38:03;;;;;;;0.43;0.43;;;6.60;99.90;;;;;;5096333;28;20927;-89
2021/10/29 02:40:30;;;;;;;0.83;0.40;;;6.60;99.90;;;;;;5096218;28;20440;-89
2021/10/29 02:42:56;;;;;;;0.30;0.30;;;6.60;99.90;;;;;;5095750;28;20488;-86
2021/10/29 02:45:23;;;;;;;0.30;0.30;;;6.60;99.90;;;;;;5096056;28;20807;-86
2021/10/29 02:47:52;;;;;;;0.60;0.60;;;6.60;99.90;;;;;;5095844;28;20448;-86
2021/10/29 02:50:20;;;;;;;0.67;0.50;;;6.60;99.90;;;;;;5095474;28;20452;-86
2021/10/29 02:52:47;;;;;;;11.93;1.23;;;6.50;99.90;;;;;;5095780;28;20472;-86
2021/10/29 02:55:16;;;;;;;1.13;1.00;;;6.50;99.90;;;;;;5095799;28;20448;-86
2021/10/29 02:57:43;;;;;;;0.77;0.47;;;6.40;99.90;;;;;;5095793;28;20452;-86
2021/10/29 03:00:11;;;;;;;0.70;0.70;;;6.40;99.90;;;;;;5095718;28;20454;-86
2021/10/29 03:02:38;;;;;;;1.03;0.97;;;6.40;99.90;;;;;;5095468;28;20493;-86
2021/10/29 03:05:07;;;;;;;0.40;0.40;;;6.40;99.90;;;;;;5095795;28;20467;-86
2021/10/29 03:07:34;;;;;;;0.70;0.70;;;6.40;99.90;;;;;;5095352;28;20444;-86
2021/10/29 03:10:03;;;;;;;0.50;0.37;;;6.40;99.90;;;;;;5095345;28;20448;-86
2021/10/29 03:12:29;;;;;;;0.40;0.40;;;6.30;99.90;;;;;;5095144;28;20472;-86
2021/10/29 03:14:56;;;;;;;1.17;1.17;;;6.20;99.90;;;;;;5095213;28;20451;-86
2021/10/29 03:17:23;;;;;;;0.63;0.47;;;6.20;99.90;;;;;;5095197;28;20448;-86
2021/10/29 03:19:50;;;;;;;0.50;0.50;;;6.20;99.90;;;;;;5095175;28;20444;-86
2021/10/29 03:22:18;;;;;;;0.57;0.43;;;6.20;99.90;;;;;;5095048;28;20464;-87
2021/10/29 03:24:45;;;;;;;0.60;0.40;;;6.20;99.90;;;;;;5094844;28;20982;-86
2021/10/29 03:27:12;;;;;;;0.83;0.83;;;6.20;99.90;;;;;;5095142;28;20440;-86
2021/10/29 03:29:39;;;;;;;0.40;0.40;;;6.10;99.90;;;;;;5094561;28;20471;-86
2021/10/29 03:32:07;;;;;;;0.73;0.73;;;6.10;99.90;;;;;;5094892;28;20468;-86
2021/10/29 03:34:34;;;;;;;0.40;0.40;;;6.10;99.90;;;;;;5094969;28;20444;-86
2021/10/29 03:37:03;;;;;;;0.70;0.70;;;6.10;99.90;;;;;;5094943;28;20448;-86
2021/10/29 03:39:34;;;;;;;0.73;0.73;;;6.10;99.90;;;;;;5094866;28;20479;-86
2021/10/29 03:42:06;;;;;;;0.40;0.40;;;6.10;99.90;;;;;;5101821;28;20463;-85
2021/10/29 03:44:43;;;;;;;0.30;0.30;;;6.10;99.90;;;;;;5110887;28;20516;-86
2021/10/29 03:47:11;;;;;;;0.30;0.30;;;6.10;99.90;;;;;;5096676;28;20886;-86
2021/10/29 03:49:43;;;;;;;0.50;0.50;;;6.10;99.90;;;;;;5095008;28;20472;-86
2021/10/29 03:52:16;;;;;;;1.80;0.60;;;6.20;99.90;;;;;;5094517;28;20456;-86
2021/10/29 03:54:47;;;;;;;1.17;0.33;;;6.20;99.90;;;;;;5094767;28;20440;-86
2021/10/29 03:57:23;;;;;;;0.63;0.50;;;6.20;99.90;;;;;;5094553;28;20428;-86
2021/10/29 03:59:50;;;;;;;0.30;0.30;;;6.20;99.90;;;;;;5094149;28;20436;-87
2021/10/29 04:02:18;;;;;;;0.40;0.40;;;6.20;99.90;;;;;;5094117;28;20994;-87
2021/10/29 04:04:45;;;;;;;0.40;0.30;;;6.20;99.90;;;;;;5094628;28;20475;-87
2021/10/29 04:07:12;;;;;;;0.30;0.30;;;6.20;99.90;;;;;;5094549;28;20448;-87
2021/10/29 04:09:39;;;;;;;0.73;0.37;;;6.20;99.90;;;;;;5094503;28;20485;-87
2021/10/29 04:12:08;;;;;;;0.90;0.40;;;6.20;99.90;;;;;;5094459;28;20459;-87
2021/10/29 04:14:35;;;;;;;0.67;0.67;;;6.30;99.90;;;;;;5094236;28;20808;-87
2021/10/29 04:17:02;;;;;;;0.40;0.30;;;6.30;99.90;;;;;;5094426;28;20444;-87
2021/10/29 04:19:28;;;;;;;0.47;0.33;;;6.30;99.90;;;;;;5094044;28;20443;-87
2021/10/29 04:21:57;;;;;;;0.97;0.70;;;6.30;99.90;;;;;;5094079;28;20497;-87
2021/10/29 04:24:24;;;;;;;0.30;0.20;;;6.30;99.90;;;;;;5094381;28;20476;-87
2021/10/29 04:26:50;;;;;;;0.80;0.60;;;6.30;99.90;;;;;;5094462;28;20428;-87
2021/10/29 04:29:24;;;;;;;0.40;0.30;;;6.40;99.90;;;;;;5094005;28;20468;-87
2021/10/29 04:31:51;;;;;;;0.73;0.70;;;6.30;99.90;;;;;;5094100;28;20468;-88
2021/10/29 04:34:20;;;;;;;0.40;0.30;;;6.30;99.90;;;;;;5094428;28;20455;-87
2021/10/29 04:36:47;;;;;;;0.43;0.43;;;6.30;99.90;;;;;;5094520;28;20444;-88
2021/10/29 04:39:14;;;;;;;0.40;0.40;;;6.20;99.90;;;;;;5094732;28;20935;-88
2021/10/29 04:41:42;;;;;;;1.13;0.70;;;6.30;99.90;;;;;;5095924;28;20456;-88
2021/10/29 04:44:09;;;;;;;0.40;0.40;;;6.30;99.90;;;;;;5095143;28;20479;-88
2021/10/29 04:46:37;;;;;;;0.30;0.20;;;6.20;99.90;;;;;;5094745;28;20444;-88
2021/10/29 04:49:04;;;;;;;0.50;0.50;;;6.20;99.90;;;;;;5095038;28;20423;-84
2021/10/29 04:51:32;;;;;;;0.93;0.40;;;6.20;99.90;;;;;;5093288;28;20452;-83
2021/10/29 04:53:59;;;;;;;0.30;0.30;;;6.20;99.90;;;;;;5093375;28;20452;-84
2021/10/29 04:56:26;;;;;;;0.50;0.40;;;6.20;99.90;;;;;;5093495;28;20786;-84
2021/10/29 04:58:53;;;;;;;1.53;1.43;;;6.20;99.90;;;;;;5093318;28;20443;-84
2021/10/29 05:01:20;;;;;;;0.70;0.70;;;6.20;99.90;;;;;;5093312;28;20455;-84
2021/10/29 05:03:48;;;;;;;1.33;0.97;;;6.10;99.90;;;;;;5093161;28;20483;-84
2021/10/29 05:06:15;;;;;;;0.30;0.30;;;6.10;99.90;;;;;;5092985;28;20444;-83
2021/10/29 05:08:42;;;;;;;0.77;0.53;;;6.10;99.90;;;;;;5093049;28;20962;-84
2021/10/29 05:11:09;;;;;;;0.63;0.63;;;6.10;99.90;;;;;;5093207;28;20448;-84
2021/10/29 05:13:35;;;;;;;0.40;0.30;;;6.10;99.90;;;;;;5096024;28;20468;-84
2021/10/29 05:16:02;;;;;;;0.50;0.33;;;6.10;99.90;;;;;;5097176;28;20455;-84
2021/10/29 05:18:29;;;;;;;0.40;0.40;;;6.00;99.90;;;;;;5096728;28;20957;-84
2021/10/29 05:20:57;;;;;;;1.70;0.70;;;6.00;99.90;;;;;;5096983;28;20444;-83
2021/10/29 05:23:25;;;;;;;0.30;0.30;;;6.00;99.90;;;;;;5096842;28;20463;-84
2021/10/29 05:25:52;;;;;;;0.40;0.40;;;6.00;99.90;;;;;;5096979;28;20530;-84
2021/10/29 05:28:19;;;;;;;0.63;0.40;;;6.00;99.90;;;;;;5096915;28;20479;-84
2021/10/29 05:30:46;;;;;;;0.87;0.70;;;6.00;99.90;;;;;;5096366;28;20468;-83
2021/10/29 05:33:12;;;;;;;1.03;1.03;;;6.00;99.90;;;;;;5096686;28;20475;-83
2021/10/29 05:35:39;;;;;;;0.40;0.30;;;5.90;99.90;;;;;;5096414;28;20943;-84
2021/10/29 05:38:07;;;;;;;0.30;0.30;;;5.90;99.90;;;;;;5096674;28;20435;-83
2021/10/29 05:40:34;;;;;;;0.40;0.40;;;5.90;99.90;;;;;;5096596;28;20453;-83
2021/10/29 05:43:01;;;;;;;0.40;0.40;;;5.90;99.90;;;;;;5096503;28;20474;-83
2021/10/29 05:45:27;;;;;;;0.50;0.40;;;5.90;99.90;;;;;;5096494;28;20479;-83
2021/10/29 05:47:55;;;;;;;0.30;0.30;;;5.90;99.90;;;;;;5096528;28;20444;-83
2021/10/29 05:50:23;;;;;;;0.30;0.30;;;5.90;99.90;;;;;;5096108;28;20448;-83
2021/10/29 05:52:49;;;;;;;0.30;0.30;;;5.90;99.90;;;;;;5096304;28;20472;-84
2021/10/29 05:55:18;;;;;;;0.40;0.30;;;5.90;99.90;;;;;;5096332;28;20448;-83
2021/10/29 05:57:47;;;;;;;0.70;0.70;;;5.90;99.90;;;;;;5097261;28;20495;-83
2021/10/29 06:00:14;;;;;;;0.40;0.40;;;5.90;99.90;;;;;;5099140;28;20476;-83
2021/10/29 06:02:41;;;;;;;0.43;0.43;;;5.90;99.90;;;;;;5099741;28;20471;-83
2021/10/29 06:05:09;;;;;;;0.63;0.63;;;5.90;99.90;;;;;;5096056;28;21016;-84
2021/10/29 06:07:36;;;;;;;0.33;0.33;;;5.90;99.90;;;;;;5096139;28;20440;-83
2021/10/29 06:10:05;;;;;;;0.50;0.40;;;5.90;99.90;;;;;;5096025;28;20452;-84
2021/10/29 06:12:34;;;;;;;0.47;0.47;;;5.90;99.90;;;;;;5095936;28;20476;-83
2021/10/29 06:15:00;;;;;;;0.30;0.30;;;5.80;99.90;;;;;;5095555;28;20448;-84
2021/10/29 06:17:29;;;;;;;0.60;0.60;;;5.80;99.90;;;;;;5095849;28;20561;-84
2021/10/29 06:19:56;;;;;;;0.30;0.30;;;5.80;99.90;;;;;;5095854;28;20542;-83
2021/10/29 06:22:25;;;;;;;0.80;0.40;;;5.70;99.90;;;;;;5096043;28;20475;-83
2021/10/29 06:24:52;;;;;;;0.50;0.50;;;5.70;99.90;;;;;;5095186;28;20897;-84
2021/10/29 06:30:07;;;;;;;0.30;0.30;;;5.80;99.90;;;;;;5095323;28;20521;-84
2021/10/29 06:32:34;;;;;;;0.40;0.40;;;5.80;99.90;;;;;;5095868;28;20490;-84
2021/10/29 06:35:01;;;;;;;0.50;0.50;;;5.90;99.90;;;;;;5095705;28;20448;-82
2021/10/29 06:37:27;;;;;;;1.13;0.87;;;6.00;99.90;;;;;;5095528;28;20451;-83
2021/10/29 06:39:54;;;;;;;0.70;0.33;;;6.10;99.90;;;;;;5093919;28;20447;-82
2021/10/29 06:42:23;;;;;;;0.77;0.77;;;6.10;99.90;;;;;;5095237;28;20558;-83
2021/10/29 06:45:02;;;;;;;0.30;0.30;;;6.20;99.90;;;;;;5094022;28;21027;-82
2021/10/29 07:01:15;;;;;;;0.50;0.50;;;6.70;99.90;;;;;;5094807;28;20408;-83
2021/10/29 07:12:10;;;;;;;0.47;0.47;;;6.70;99.90;;;;;;5094390;28;20459;-83
2021/10/29 07:42:04;;;;;;;0.40;0.40;;;7.30;99.90;;;;;;5093903;28;20516;-83
2021/10/29 07:44:32;;;;;;;0.40;0.40;;;7.30;99.90;;;;;;5093533;28;20564;-83
2021/10/29 07:46:59;;;;;;;0.40;0.40;;;7.40;99.90;;;;;;5093952;28;20452;-83
2021/10/29 07:49:28;;;;;;;0.43;0.43;;;7.40;99.90;;;;;;5093830;28;20447;-83
2021/10/29 07:51:57;;;;;;;0.50;0.50;;;7.50;99.90;;;;;;5093531;28;21021;-83
2021/10/29 07:54:24;;;;;;;0.50;0.50;;;7.50;99.90;;;;;;5094022;28;20447;-85
2021/10/29 07:56:51;;;;;;;0.50;0.50;;;7.60;99.90;;;;;;5094199;28;20467;-85
2021/10/29 07:59:18;;;;;;;2.00;1.03;;;7.70;99.90;;;;;;5093916;28;20447;-85
2021/10/29 08:01:45;;;;;;;0.50;0.40;;;7.80;99.90;;;;;;5094416;28;20452;-86
2021/10/29 08:04:12;;;;;;;0.60;0.60;;;8.00;99.90;;;;;;5094328;28;20512;-86
2021/10/29 08:06:39;;;;;;;0.30;0.30;;;8.10;99.90;;;;;;5093953;28;20470;-85
2021/10/29 08:09:07;;;;;;;1.43;0.43;;;8.10;99.90;;;;;;5094205;28;20439;-86
2021/10/29 08:11:35;;;;;;;0.40;0.40;;;8.20;99.90;;;;;;5093994;28;20456;-86
2021/10/29 08:14:01;;;;;;;0.60;0.60;;;8.30;99.90;;;;;;5094123;28;20534;-86
2021/10/29 08:16:28;;;;;;;2.43;0.70;;;8.40;99.90;;;;;;5093642;28;20456;-85
2021/10/29 08:18:55;;;;;;;0.87;0.87;;;8.60;99.90;;;;;;5093521;28;20447;-85
2021/10/29 08:21:21;;;;;;;0.40;0.30;;;8.70;99.90;;;;;;5093971;28;20455;-86
2021/10/29 08:23:48;;;;;;;0.80;0.80;;;8.80;99.90;;;;;;5093408;28;20798;-86
2021/10/29 08:26:16;;;;;;;0.70;0.57;;;8.80;99.90;;;;;;5093399;28;20476;-85
2021/10/29 08:28:44;;;;;;;0.40;0.40;;;8.90;99.90;;;;;;5093556;28;20456;-85
2021/10/29 08:31:11;;;;;;;0.40;0.40;;;9.10;99.90;;;;;;5093210;28;20472;-86
2021/10/29 08:33:38;;;;;;;3.23;2.93;;;9.20;99.90;;;;;;5093671;28;20472;-86
2021/10/29 08:36:06;;;;;;;0.43;0.43;;;9.40;99.90;;;;;;5093554;28;20436;-86
2021/10/29 08:38:33;;;;;;;1.93;0.60;;;9.70;99.90;;;;;;5093917;28;20470;-87
2021/10/29 08:41:00;;;;;;;0.70;0.60;;;10.00;99.90;;;;;;5094419;28;20432;-87
2021/10/29 08:43:28;;;;;;;0.47;0.37;;;10.20;99.90;;;;;;5093538;28;20901;-85
2021/10/29 08:45:55;;;;;;;0.40;0.40;;;10.40;99.90;;;;;;5092915;28;21001;-84
2021/10/29 08:48:22;;;;;;;0.70;0.70;;;10.90;99.90;;;;;;5097867;28;20443;-84
2021/10/29 08:50:49;;;;;;;1.87;0.80;;;11.50;99.90;;;;;;5099458;28;20428;-84
2021/10/29 08:53:17;;;;;;;1.30;0.70;;;12.20;99.90;;;;;;5100128;28;20472;-84
2021/10/29 08:55:43;;;;;;;1.73;1.20;;;12.80;99.90;;;;;;5097565;28;20432;-84
2021/10/29 08:58:11;;;;;;;1.33;1.23;;;13.60;99.90;;;;;;5097467;28;20436;-84
2021/10/29 09:00:43;;;;;;;0.63;0.63;;;14.50;99.90;;;;;;5096935;28;20436;-84
2021/10/29 09:03:24;;;;;;;1.03;0.53;;;15.70;99.90;;;;;;5097137;28;21043;-84
2021/10/29 09:06:03;;;;;;;2.50;0.80;;;16.60;99.90;;;;;;5097038;28;20471;-84
2021/10/29 09:08:49;;;;;;;1.43;1.03;;;17.30;99.90;;;;;;5100015;28;20834;-85
2021/10/29 09:31:26;;;;;;;1.37;1.13;;;17.60;99.90;;;;;;5096200;28;20984;-84
2021/10/29 09:33:57;;;;;;;8.20;1.10;;;17.30;99.90;;;;;;5096628;28;20863;-83
2021/10/29 09:36:29;;;;;;;2.30;2.10;;;17.30;99.90;;;;;;5096329;28;20435;-84
2021/10/29 09:39:04;;;;;;;1.63;1.00;;;17.30;99.90;;;;;;5096464;28;20432;-84
2021/10/29 09:41:31;;;;;;;2.10;1.10;;;17.20;99.90;;;;;;5096519;28;20471;-84
2021/10/29 09:44:01;;;;;;;2.60;1.33;;;17.30;99.90;;;;;;5096140;28;20436;-84
2021/10/29 09:46:38;;;;;;;1.13;1.03;;;17.60;99.90;;;;;;5096149;28;21011;-84
2021/10/29 09:49:15;;;;;;;1.10;1.00;;;17.90;99.90;;;;;;5096438;28;20440;-84
2021/10/29 09:51:54;;;;;;;1.90;1.17;;;17.70;99.90;;;;;;5096316;28;20845;-84
2021/10/29 09:54:31;;;;;;;1.03;0.80;;;17.10;99.90;;;;;;5096348;28;20430;-84
2021/10/29 09:57:00;;;;;;;1.00;0.77;;;17.00;99.90;;;;;;5096182;28;20467;-86
2021/10/29 09:59:27;;;;;;;1.80;1.00;;;16.80;99.90;;;;;;5095713;28;20438;-83
2021/10/29 10:01:54;;;;;;;2.00;1.43;;;16.30;99.90;;;;;;5097877;28;20475;-84
2021/10/29 10:04:22;;;;;;;2.67;1.50;;;16.10;99.90;;;;;;5097873;28;20428;-85
2021/10/29 10:06:49;;;;;;;1.60;0.97;;;15.80;99.90;;;;;;5096432;28;20472;-85
2021/10/29 10:09:17;;;;;;;1.37;0.80;;;15.70;99.90;;;;;;5095929;28;20425;-85
2021/10/29 10:11:48;;;;;;;1.20;1.10;;;15.50;99.90;;;;;;5095513;28;20972;-85
2021/10/29 10:14:16;;;;;;;1.40;1.27;;;15.30;99.90;;;;;;5095572;28;20903;-84
2021/10/29 10:16:44;;;;;;;1.33;0.67;;;15.30;99.90;;;;;;5095949;28;20433;-85
2021/10/29 10:19:11;;;;;;;1.00;0.80;;;15.10;99.90;;;;;;5095368;28;20818;-85
2021/10/29 10:21:41;;;;;;;1.13;1.03;;;15.00;99.90;;;;;;5095391;28;20823;-87
2021/10/29 10:24:13;;;;;;;1.00;0.97;;;15.00;99.90;;;;;;5095887;28;20462;-84
2021/10/29 10:29:45;;;;;;;0.87;0.83;;;15.10;99.90;;;;;;5038005;28;20616;-85
2021/10/29 10:43:41;;;;;;;1.20;0.73;;;15.10;99.90;;;;;;5095127;28;20439;-85
2021/10/29 10:46:15;;;;;;;0.70;0.70;;;15.20;99.90;;;;;;5095243;28;20472;-85
2021/10/29 10:48:47;;;;;;;2.00;1.20;;;15.30;99.90;;;;;;5095114;28;20444;-85
2021/10/29 10:51:43;;;;;;;1.13;0.97;;;15.30;99.90;;;;;;5095329;28;20475;-85
2021/10/29 10:54:16;;;;;;;1.23;1.03;;;15.30;99.90;;;;;;5095281;28;20489;-85
2021/10/29 10:56:56;;;;;;;0.93;0.90;;;15.40;99.90;;;;;;5095216;28;20436;-85
2021/10/29 10:59:34;;;;;;;5.10;1.10;;;15.40;99.90;;;;;;5094814;28;20432;-84
2021/10/29 11:05:20;;;;;;;0.70;0.70;;;15.20;99.90;;;;;;5095011;28;20832;-85
2021/10/29 11:10:32;;;;;;;3.07;1.00;;;15.20;99.90;;;;;;5062235;28;20431;-85
2021/10/29 11:13:20;;;;;;;1.43;0.70;;;15.20;99.90;;;;;;5094339;28;21048;-85
2021/10/29 11:15:58;;;;;;;1.43;1.33;;;15.30;99.90;;;;;;5094739;28;20435;-85
2021/10/29 11:18:33;;;;;;;2.10;1.00;;;15.40;99.90;;;;;;5094465;28;20436;-85
2021/10/29 11:21:18;;;;;;;2.10;1.07;;;15.50;99.90;;;;;;5094747;28;20427;-85
2021/10/29 11:23:54;;;;;;;1.30;1.20;;;15.50;99.90;;;;;;5094675;28;20537;-85
2021/10/29 11:26:25;;;;;;;1.10;1.00;;;15.50;99.90;;;;;;5094769;28;20467;-86
2021/10/29 11:28:54;;;;;;;1.83;1.20;;;15.50;99.90;;;;;;5094565;28;20485;-85
2021/10/29 11:31:25;;;;;;;1.10;1.10;;;15.40;99.90;;;;;;5099159;28;20487;-85
2021/10/29 11:33:54;;;;;;;0.60;0.60;;;15.40;99.90;;;;;;5094527;28;20555;-85
2021/10/29 11:36:23;;;;;;;3.80;1.00;;;15.40;99.90;;;;;;5093866;28;20424;-85
2021/10/29 11:38:51;;;;;;;1.27;0.70;;;15.40;99.90;;;;;;5094141;28;20913;-85
2021/10/29 11:41:21;;;;;;;2.03;1.20;;;15.40;99.90;;;;;;5094123;28;20911;-85
2021/10/29 11:43:52;;;;;;;1.00;0.90;;;15.30;99.90;;;;;;5094167;28;20478;-85
2021/10/29 11:46:23;;;;;;;3.70;1.10;;;15.30;99.90;;;;;;5094419;28;20966;-86
2021/10/29 11:48:58;;;;;;;0.70;0.70;;;15.20;99.90;;;;;;5094529;28;20834;-86
2021/10/29 11:51:26;;;;;;;1.20;1.20;;;15.20;99.90;;;;;;5093942;28;20898;-86
2021/10/29 11:53:57;;;;;;;1.17;0.70;;;15.20;99.90;;;;;;5094886;28;20489;-85
2021/10/29 11:56:29;;;;;;;1.20;0.97;;;15.20;99.90;;;;;;5097483;28;20441;-85
2021/10/29 12:01:54;;;;;;;0.60;0.50;;;15.10;99.90;;;;;;5064439;28;20497;-85
2021/10/29 12:07:15;;;;;;;2.40;0.70;;;15.20;99.90;;;;;;5093908;28;20551;-85
2021/10/29 12:09:42;;;;;;;1.83;0.93;;;15.10;99.90;;;;;;5093769;28;20911;-86
2021/10/29 12:12:11;;;;;;;3.90;0.87;;;15.00;99.90;;;;;;5093540;28;20514;-85
2021/10/29 12:14:41;;;;;;;1.63;0.60;;;14.90;99.90;;;;;;5093808;28;20442;-86
2021/10/29 12:17:12;;;;;;;2.17;1.00;;;14.90;99.90;;;;;;5093327;28;20918;-85
2021/10/29 12:19:40;;;;;;;0.80;0.80;;;14.80;99.90;;;;;;5093851;28;20432;-85
2021/10/29 12:22:19;;;;;;;0.40;0.40;;;14.80;99.90;;;;;;5093275;28;20562;-85
2021/10/29 12:24:51;;;;;;;1.30;0.50;;;14.80;99.90;;;;;;5093766;28;20440;-86
2021/10/29 12:27:27;;;;;;;0.47;0.40;;;14.80;99.90;;;;;;5093235;28;20973;-85
2021/10/29 12:30:17;;;;;;;0.90;0.70;;;14.70;99.90;;;;;;5093294;28;20487;-86
2021/10/29 12:53:05;;;;;;;2.10;0.77;;;14.70;99.90;;;;;;5093365;28;20447;-86
2021/10/29 13:01:33;;;;;;;1.23;0.50;;;14.90;99.90;;;;;;5093509;28;20402;-86
2021/10/29 13:04:04;;;;;;;0.50;0.50;;;14.80;99.90;;;;;;5093112;28;20531;-85
2021/10/29 13:06:33;;;;;;;1.53;0.63;;;14.70;99.90;;;;;;5093353;28;20555;-85
2021/10/29 13:09:01;;;;;;;0.97;0.50;;;14.70;99.90;;;;;;5093113;28;20444;-85
2021/10/29 13:11:34;;;;;;;0.60;0.60;;;14.70;99.90;;;;;;5093582;28;20432;-86
2021/10/29 13:14:02;;;;;;;1.83;0.60;;;14.60;99.90;;;;;;5093324;28;20433;-86
2021/10/29 13:16:34;;;;;;;0.40;0.40;;;14.60;99.90;;;;;;5112107;28;20428;-87
2021/10/29 13:24:59;;;;;;;0.43;0.40;;;14.50;99.90;;;;;;5092967;28;20403;-85
2021/10/29 13:27:39;;;;;;;0.67;0.50;;;14.50;99.90;;;;;;5092846;28;20978;-85
2021/10/29 13:36:01;;;;;;;0.40;0.40;;;14.70;99.90;;;;;;5096811;28;20411;-85
2021/10/29 13:52:41;;;;;;;0.80;0.40;;;14.40;99.90;;;;;;5096428;28;20549;-85
2021/10/29 13:55:20;;;;;;;0.73;0.73;;;14.50;99.90;;;;;;5096142;28;20477;-85
2021/10/29 14:03:40;;;;;;;0.40;0.40;;;14.60;99.90;;;;;;5096386;28;20447;-86
2021/10/29 14:28:19;;;;;;;0.40;0.40;;;14.40;99.90;;;;;;5095935;28;20399;-85
2021/10/29 14:30:53;;;;;;;0.70;0.60;;;14.40;99.90;;;;;;5095482;28;20562;-85
2021/10/29 14:33:23;;;;;;;2.50;0.57;;;14.30;99.90;;;;;;5095701;28;20467;-85
2021/10/29 14:35:53;;;;;;;0.40;0.40;;;14.10;99.90;;;;;;5095721;28;20428;-85
2021/10/29 14:38:28;;;;;;;0.30;0.30;;;14.00;99.90;;;;;;5095666;28;20428;-85
2021/10/29 14:40:58;;;;;;;0.50;0.40;;;14.00;99.90;;;;;;5095333;28;20431;-85
2021/10/29 14:43:28;;;;;;;0.40;0.40;;;13.80;99.90;;;;;;5095473;28;20467;-85
2021/10/29 14:46:04;;;;;;;3.83;0.50;;;13.80;99.90;;;;;;5095234;28;20424;-85
2021/10/29 14:48:47;;;;;;;0.43;0.43;;;13.80;99.90;;;;;;5095432;28;20530;-84
2021/10/29 14:51:49;;;;;;;1.43;0.50;;;13.70;99.90;;;;;;5095283;28;20436;-85
2021/10/29 15:05:34;;;;;;;0.47;0.30;;;13.50;99.90;;;;;;5089265;28;20453;-84
2021/10/29 15:16:29;;;;;;;0.90;0.80;;;13.20;99.90;;;;;;5094976;28;20403;-85
2021/10/29 15:27:30;;;;;;;0.50;0.50;;;12.90;99.90;;;;;;5032241;28;20509;-85
2021/10/29 15:30:02;;;;;;;3.50;0.60;;;12.80;99.90;;;;;;5031928;28;20497;-85
2021/10/29 15:32:42;;;;;;;0.40;0.40;;;12.70;99.90;;;;;;5064132;28;20479;-85
2021/10/29 15:46:11;;;;;;;0.50;0.30;;;12.40;99.90;;;;;;5093599;28;20431;-85
2021/10/29 15:48:46;;;;;;;0.43;0.43;;;12.30;99.90;;;;;;5094255;28;20440;-85
2021/10/29 15:51:13;;;;;;;0.80;0.40;;;12.20;99.90;;;;;;5094076;28;20929;-85
2021/10/29 15:53:41;;;;;;;0.50;0.50;;;12.10;99.90;;;;;;5094252;28;20840;-85
2021/10/29 15:56:15;;;;;;;0.70;0.47;;;12.00;99.90;;;;;;5098407;28;20485;-85
2021/10/29 15:58:47;;;;;;;0.60;0.60;;;12.00;99.90;;;;;;5094258;28;20440;-85
2021/10/29 16:01:18;;;;;;;1.63;0.80;;;11.90;99.90;;;;;;5093917;28;20960;-85
2021/10/29 16:04:01;;;;;;;1.00;0.60;;;11.90;99.90;;;;;;5093928;28;20550;-85
2021/10/29 16:17:27;;;;;;;1.57;0.50;;;11.60;99.90;;;;;;5093846;28;20396;-86
2021/10/29 16:19:54;;;;;;;2.37;0.60;;;11.50;99.90;;;;;;5094291;28;20436;-85
2021/10/29 16:22:23;;;;;;;0.40;0.40;;;11.60;99.90;;;;;;5094072;28;20486;-85
2021/10/29 16:24:58;;;;;;;5.00;1.17;;;11.70;99.90;;;;;;5094082;28;20440;-85
2021/10/29 16:27:33;;;;;;;0.50;0.50;;;11.70;99.90;;;;;;5094017;28;20893;-85
2021/10/29 16:30:00;;;;;;;0.87;0.57;;;12.00;99.90;;;;;;5093378;28;20560;-85
2021/10/29 16:32:49;;;;;;;0.80;0.53;;;12.10;99.90;;;;;;5093578;28;20475;-84
2021/10/29 16:35:15;;;;;;;4.67;0.50;;;12.20;99.90;;;;;;5093462;28;20444;-85
2021/10/29 16:37:42;;;;;;;0.57;0.50;;;12.30;99.90;;;;;;5093571;28;20511;-85
2021/10/29 16:40:10;;;;;;;0.40;0.40;;;12.40;99.90;;;;;;5093623;28;20432;-85
2021/10/29 16:42:37;;;;;;;1.10;0.60;;;12.40;99.90;;;;;;5093232;28;20468;-86
2021/10/29 16:45:04;;;;;;;1.17;0.40;;;12.40;99.90;;;;;;5093594;28;20447;-85
2021/10/29 16:47:32;;;;;;;0.70;0.70;;;12.50;99.90;;;;;;5093396;28;20464;-86
2021/10/29 16:49:59;;;;;;;0.93;0.80;;;12.50;99.90;;;;;;5093202;28;20438;-87
2021/10/29 16:52:26;;;;;;;1.07;0.70;;;12.40;99.90;;;;;;5093481;28;20467;-86